LPPT/LIS METAR and TAF weather

Enter ICAO airport designator
Station Type Date Time Source
LPPT METAR 2018/12/12 07:30 UTC NOAA

LPPT 120730Z 26003KT 210V290 9999 BKN034 12/10 Q1023


Station Type Date Time Source
LPPT Decoded METAR 2018/12/12 07:30 UTC NOAA

Lisboa / Portela, Portugal (LPPT) 38-46N 009-08W 123M
Dec 12, 2018 - 02:30 AM EST / 2018.12.12 0730 UTC
Wind: from the W (260 degrees) at 3 MPH (3 KT) (direction variable):0
Visibility: greater than 7 mile(s):0
Sky conditions: mostly cloudy
Temperature: 53 F (12 C)
Dew Point: 50 F (10 C)
Relative Humidity: 87%
Pressure (altimeter): 30.21 in. Hg (1023 hPa)
ob: LPPT 120730Z 26003KT 210V290 9999 BKN034 12/10 Q1023
cycle: 7

Station Type Date Time Source
LPPT TAF 2018/12/12 06:18 UTC NOAA

TAF TAF LPPT 120500Z 1206/1312 VRB03KT 8000 FEW012 PROB30 1207/1210 06005KT 0100 FG VV001
BECMG 1210/1213 15005KT 9999 BKN015
BECMG 1217/1220 20012KT 5000 -RA BR SCT004 BKN012
TEMPO 1222/1302 22015G27KT 2000 +RADZ BR SCT002 BKN004
BECMG 1302/1305 28020G32KT 9999 NSW SCT025
BECMG 1305/1308 31015G25KT


Example: see airport list